Time;durP1;ratioP1;P1;durP2;ratioP2;P2;SDS_P1;SDS_P2;PMS_P1;PMS_P2;Temp;Humidity;BMP_temperature;BMP_pressure;BME280_temperature;BME280_humidity;BME280_pressure;Samples;Min_cycle;Max_cycle;Signal;HPM_P1;HPM_P2
2022/11/16 00:02:06;;;;;;;6.93;3.90;;;;;;;10.05;100.00;99227.41;5012231;28;20268;-75
2022/11/16 00:05:09;;;;;;;;;;;;;;;9.98;100.00;99227.84;5013450;28;20045;-75
2022/11/16 00:08:15;;;;;;;6.32;3.42;;;;;;;9.96;100.00;99231.53;5016207;28;19967;-75
2022/11/16 00:11:18;;;;;;;;;;;;;;;10.02;100.00;99224.09;5016578;28;20044;-75
2022/11/16 00:14:24;;;;;;;8.63;3.65;;;;;;;10.06;100.00;99232.56;5015928;28;19920;-75
2022/11/16 00:17:28;;;;;;;5.10;3.42;;;;;;;10.06;100.00;99229.13;5015122;28;20040;-75
2022/11/16 00:20:31;;;;;;;6.70;3.75;;;;;;;9.96;100.00;99234.97;5015986;28;20076;-75
2022/11/16 00:23:35;;;;;;;;;;;;;;;10.00;100.00;99231.19;5016296;28;20084;-75
2022/11/16 00:26:38;;;;;;;;;;;;;;;10.08;100.00;99229.81;5016413;28;19921;-75
2022/11/16 00:29:42;;;;;;;6.28;3.17;;;;;;;9.90;100.00;99227.56;5015709;28;20423;-75
2022/11/16 00:32:45;;;;;;;;;;;;;;;10.04;100.00;99217.94;5016072;28;20183;-75
2022/11/16 00:35:48;;;;;;;5.90;3.22;;;;;;;10.00;100.00;99220.75;5015939;28;19966;-75
2022/11/16 00:38:53;;;;;;;5.43;3.28;;;;;;;10.01;100.00;99216.38;5015516;28;20076;-75
2022/11/16 00:41:56;;;;;;;5.45;3.50;;;;;;;10.02;100.00;99213.66;5014686;28;20045;-75
2022/11/16 00:45:00;;;;;;;;;;;;;;;10.06;100.00;99216.06;5015840;28;20084;-75
2022/11/16 00:48:04;;;;;;;8.18;3.22;;;;;;;10.04;100.00;99210.09;5015344;28;19920;-75
2022/11/16 00:51:07;;;;;;;7.00;3.00;;;;;;;9.94;100.00;99218.56;5015618;28;20049;-75
2022/11/16 00:54:11;;;;;;;5.68;3.00;;;;;;;9.98;100.00;99199.13;5014595;28;20040;-75
2022/11/16 00:57:14;;;;;;;6.53;3.10;;;;;;;10.02;100.00;99187.53;5014439;28;20040;-75
2022/11/16 01:00:18;;;;;;;4.60;3.28;;;;;;;9.98;100.00;99191.28;5014242;28;20088;-75
2022/11/16 01:03:21;;;;;;;;;;;;;;;9.86;100.00;99192.19;5015080;28;20366;-75
2022/11/16 01:06:25;;;;;;;8.02;3.83;;;;;;;9.94;100.00;99191.63;5015396;28;20359;-75
2022/11/16 01:09:29;;;;;;;5.78;4.03;;;;;;;9.88;100.00;99197.28;5014055;28;20115;-75
2022/11/16 01:12:32;;;;;;;9.88;3.60;;;;;;;9.85;100.00;99198.34;5014996;28;20164;-75
2022/11/16 01:15:36;;;;;;;6.20;4.22;;;;;;;9.94;100.00;99196.84;5014048;28;20409;-75
2022/11/16 01:18:39;;;;;;;;;;;;;;;10.09;100.00;99194.94;5013944;28;20044;-75
2022/11/16 01:21:42;;;;;;;6.40;3.58;;;;;;;10.01;100.00;99190.25;5013490;28;20379;-75
2022/11/16 01:24:46;;;;;;;;;;;;;;;9.92;100.00;99185.69;5013016;28;20074;-75
2022/11/16 01:27:49;;;;;;;11.60;4.43;;;;;;;9.98;100.00;99188.69;5012757;28;20463;-75
2022/11/16 01:31:00;;;;;;;4.82;3.60;;;;;;;9.92;100.00;99189.16;5012346;28;20049;-75
2022/11/16 01:34:05;;;;;;;7.30;4.22;;;;;;;10.02;100.00;99184.94;5001071;28;20539;-75
2022/11/16 01:37:09;;;;;;;4.97;3.60;;;;;;;9.98;100.00;99180.84;5013322;28;20045;-75
2022/11/16 01:40:17;;;;;;;5.85;3.80;;;;;;;9.95;100.00;99185.47;5013952;28;20053;-75
2022/11/16 01:43:23;;;;;;;8.50;3.90;;;;;;;9.98;100.00;99186.06;5012966;28;20079;-75
2022/11/16 01:46:29;;;;;;;7.22;3.42;;;;;;;9.87;100.00;99178.19;5013805;28;20423;-75
2022/11/16 01:49:36;;;;;;;6.60;3.35;;;;;;;9.96;100.00;99187.16;5013371;28;20132;-75
2022/11/16 01:52:46;;;;;;;5.38;2.85;;;;;;;9.98;100.00;99175.63;5014578;28;20490;-75
2022/11/16 01:55:50;;;;;;;5.90;3.40;;;;;;;9.99;100.00;99179.09;5013226;28;20048;-75
2022/11/16 01:59:18;;;;;;;5.15;3.33;;;;;;;10.12;100.00;99168.59;5012999;28;20056;-75
2022/11/16 02:02:23;;;;;;;5.88;4.00;;;;;;;10.03;100.00;99177.94;5012862;28;20061;-75
2022/11/16 02:05:38;;;;;;;7.68;3.75;;;;;;;9.91;100.00;99169.19;5013259;28;20053;-75
2022/11/16 02:13:11;;;;;;;5.50;3.60;;;;;;;9.94;100.00;99174.19;5012923;28;20096;-75
2022/11/16 02:16:50;;;;;;;6.07;3.70;;;;;;;9.86;100.00;99162.59;5003108;28;20140;-75
2022/11/16 02:20:46;;;;;;;4.87;3.33;;;;;;;10.00;100.00;99168.53;5013385;28;20437;-75
2022/11/16 02:24:17;;;;;;;6.57;3.28;;;;;;;10.00;100.00;99173.75;5013137;28;20053;-75
2022/11/16 02:27:48;;;;;;;5.10;3.33;;;;;;;9.97;100.00;99173.13;5012725;28;20461;-75
2022/11/16 02:30:55;;;;;;;6.32;3.00;;;;;;;10.01;100.00;99170.19;5013476;28;20072;-75
2022/11/16 02:34:00;;;;;;;6.05;3.55;;;;;;;10.03;100.00;99162.25;5012739;28;20077;-75
2022/11/16 02:37:07;;;;;;;5.38;3.50;;;;;;;10.11;100.00;99161.69;5012679;28;20505;-75
2022/11/16 02:40:15;;;;;;;5.15;3.55;;;;;;;10.03;100.00;99162.25;5012872;28;20437;-75
2022/11/16 02:43:25;;;;;;;4.50;3.08;;;;;;;10.13;100.00;99157.22;5012706;28;20505;-75
2022/11/16 02:46:35;;;;;;;4.82;3.10;;;;;;;9.99;100.00;99156.44;5012968;28;20092;-75
2022/11/16 02:49:55;;;;;;;5.30;3.28;;;;;;;9.98;100.00;99170.41;5012442;28;20045;-75
2022/11/16 02:52:58;;;;;;;4.93;2.90;;;;;;;10.02;100.00;99156.22;5013455;28;20401;-75
2022/11/16 02:56:05;;;;;;;4.35;2.78;;;;;;;10.09;100.00;99161.00;5012439;28;20044;-75
2022/11/16 02:59:09;;;;;;;4.78;3.42;;;;;;;10.07;100.00;99165.47;5012352;28;20068;-74
2022/11/16 03:02:47;;;;;;;3.60;2.78;;;;;;;9.93;100.00;99159.47;5012145;28;20064;-75
2022/11/16 03:05:54;;;;;;;5.45;3.60;;;;;;;10.08;100.00;99156.69;5012236;28;20092;-75
2022/11/16 03:09:20;;;;;;;3.80;2.78;;;;;;;9.99;100.00;99158.22;5012543;28;20061;-74
2022/11/16 03:12:29;;;;;;;5.57;3.30;;;;;;;9.95;100.00;99160.19;5013080;28;20076;-74
2022/11/16 03:15:37;;;;;;;5.07;3.17;;;;;;;9.94;100.00;99158.53;5012013;28;20400;-75
2022/11/16 03:18:43;;;;;;;4.30;2.75;;;;;;;10.02;100.00;99160.59;5012835;28;20048;-75
2022/11/16 03:21:50;;;;;;;3.60;2.55;;;;;;;10.08;100.00;99161.91;5012057;28;20067;-75
2022/11/16 03:24:56;;;;;;;5.03;2.72;;;;;;;10.02;100.00;99153.59;5011765;28;20141;-75
2022/11/16 03:28:12;;;;;;;5.32;2.67;;;;;;;9.98;100.00;99153.91;5011825;28;20049;-75
2022/11/16 03:31:27;;;;;;;4.88;3.35;;;;;;;9.98;100.00;99149.50;5011909;28;20419;-75
2022/11/16 03:34:34;;;;;;;5.97;2.83;;;;;;;10.06;100.00;99151.59;5011835;28;20092;-73
2022/11/16 03:37:40;;;;;;;3.58;2.70;;;;;;;10.04;100.00;99150.88;5011841;28;20048;-73
2022/11/16 03:40:47;;;;;;;5.40;2.20;;;;;;;9.99;100.00;99138.16;5013444;28;20053;-73
2022/11/16 03:43:53;;;;;;;4.05;3.33;;;;;;;10.07;100.00;99121.09;5015663;28;20044;-72
2022/11/16 03:46:57;;;;;;;3.90;2.72;;;;;;;10.08;100.00;99117.53;5016668;28;20346;-73
2022/11/16 03:50:01;;;;;;;4.10;2.20;;;;;;;9.97;100.00;99116.53;5015710;28;20041;-74
2022/11/16 03:53:05;;;;;;;4.32;2.30;;;;;;;10.06;100.00;99137.72;5015548;28;20089;-74
2022/11/16 03:56:09;;;;;;;4.10;2.90;;;;;;;10.13;100.00;99144.16;5015552;28;20045;-74
2022/11/16 03:59:15;;;;;;;5.28;2.75;;;;;;;10.10;100.00;99141.75;5015542;28;20064;-75
2022/11/16 04:02:18;;;;;;;;;;;;;;;9.97;100.00;99150.47;5015923;28;20067;-75
2022/11/16 04:25:46;;;;;;;8.13;3.05;;;;;;;10.12;100.00;99151.16;5015065;28;20081;-74
2022/11/16 04:28:53;;;;;;;3.85;2.83;;;;;;;9.97;100.00;99173.13;5004584;28;20421;-74
2022/11/16 04:38:40;;;;;;;9.73;4.97;;;;;;;10.02;100.00;99176.28;5014734;28;20100;-74
2022/11/16 04:48:31;;;;;;;10.05;4.80;;;;;;;10.06;100.00;99176.88;5014694;28;20052;-75
2022/11/16 04:51:34;;;;;;;;;;;;;;;10.01;100.00;99177.19;5006270;28;20081;-74
2022/11/16 04:54:37;;;;;;;5.40;3.90;;;;;;;10.12;100.00;99174.66;5002925;28;19921;-74
2022/11/16 04:57:41;;;;;;;6.07;3.42;;;;;;;10.13;100.00;99167.66;4995192;28;20092;-74
2022/11/16 05:00:44;;;;;;;7.60;3.70;;;;;;;10.10;100.00;99168.69;4994811;28;20042;-75
2022/11/16 05:03:50;;;;;;;7.75;3.97;;;;;;;10.01;100.00;99167.56;4997168;28;20500;-73
2022/11/16 05:06:55;;;;;;;7.20;4.13;;;;;;;9.96;100.00;99167.09;5007834;28;20104;-74
2022/11/16 05:09:59;;;;;;;6.88;4.40;;;;;;;10.05;100.00;99168.22;5009344;28;20057;-74
2022/11/16 05:13:03;;;;;;;6.47;4.70;;;;;;;10.01;100.00;99170.19;4994086;28;20088;-74
2022/11/16 05:16:06;;;;;;;;;;;;;;;10.09;100.00;99171.44;5012080;28;20049;-74
2022/11/16 05:22:35;;;;;;;6.45;3.20;;;;;;;10.02;100.00;99179.72;5004939;28;20049;-74
2022/11/16 05:25:39;;;;;;;4.20;3.03;;;;;;;10.02;100.00;99187.53;4993894;28;20690;-74
2022/11/16 05:28:46;;;;;;;6.50;3.13;;;;;;;10.00;100.00;99172.91;4994566;28;20105;-74
2022/11/16 05:31:50;;;;;;;5.28;3.38;;;;;;;9.91;100.00;99173.56;4994280;28;20085;-77
2022/11/16 05:34:54;;;;;;;4.55;2.95;;;;;;;9.99;100.00;99186.94;4994113;28;20096;-75
2022/11/16 05:37:59;;;;;;;6.90;4.20;;;;;;;9.97;100.00;99194.03;4989137;28;20049;-76
2022/11/16 05:41:02;;;;;;;;;;;;;;;9.94;100.00;99204.69;5007528;28;20432;-76
2022/11/16 05:44:07;;;;;;;10.38;4.32;;;;;;;9.97;100.00;99197.47;5009453;28;19964;-76
2022/11/16 05:47:11;;;;;;;6.43;4.60;;;;;;;10.02;100.00;99198.00;4992581;28;20045;-76
2022/11/16 05:50:15;;;;;;;8.48;4.15;;;;;;;9.99;100.00;99192.97;5006127;28;20377;-76
2022/11/16 05:53:23;;;;;;;6.22;4.60;;;;;;;10.05;100.00;99196.09;5010158;28;20171;-76
2022/11/16 05:56:27;;;;;;;8.80;5.05;;;;;;;9.90;100.00;99196.25;4990484;28;20073;-77
2022/11/16 05:59:31;;;;;;;6.95;5.20;;;;;;;9.87;100.00;99193.84;5009888;28;20170;-77
2022/11/16 06:02:37;;;;;;;12.80;8.25;;;;;;;9.75;100.00;99198.16;5009878;28;20079;-76
2022/11/16 06:05:40;;;;;;;12.63;9.18;;;;;;;9.59;100.00;99194.09;5010807;28;20210;-76
2022/11/16 06:08:45;;;;;;;21.25;4.95;;;;;;;9.50;100.00;99193.78;5008567;28;20068;-76
2022/11/16 06:11:57;;;;;;;8.27;5.55;;;;;;;9.41;100.00;99207.50;5009646;28;20111;-76
2022/11/16 06:15:01;;;;;;;;;;;;;;;9.34;100.00;99206.22;5010226;28;20053;-76
2022/11/16 06:18:06;;;;;;;5.93;3.53;;;;;;;9.29;100.00;99206.56;4988941;28;19920;-76
2022/11/16 06:21:10;;;;;;;5.88;2.63;;;;;;;9.41;100.00;99204.88;5006255;28;20099;-76
2022/11/16 06:24:14;;;;;;;4.05;3.10;;;;;;;9.38;100.00;99209.44;5009318;28;20499;-76
2022/11/16 06:27:18;;;;;;;6.40;2.22;;;;;;;9.39;100.00;99216.38;5008603;28;20072;-76
2022/11/16 06:30:22;;;;;;;4.35;2.60;;;;;;;9.34;100.00;99224.47;5008862;28;20096;-76
2022/11/16 06:33:26;;;;;;;5.45;2.70;;;;;;;9.24;100.00;99229.50;5008696;28;20044;-75
2022/11/16 06:36:30;;;;;;;7.45;2.85;;;;;;;9.23;100.00;99229.59;5007341;28;20095;-75
2022/11/16 06:39:37;;;;;;;8.85;2.22;;;;;;;9.07;100.00;99235.84;5007994;28;20036;-76
2022/11/16 06:42:41;;;;;;;4.55;2.00;;;;;;;8.89;100.00;99242.25;5001423;28;20398;-76
2022/11/16 06:45:52;;;;;;;9.63;3.80;;;;;;;8.91;100.00;99250.84;5004745;28;20725;-76
2022/11/16 06:48:55;;;;;;;5.78;3.58;;;;;;;8.92;100.00;99242.06;5005532;28;20112;-76
2022/11/16 06:51:58;;;;;;;3.10;1.52;;;;;;;8.74;99.80;99251.94;5003238;28;20103;-75
2022/11/16 06:55:03;;;;;;;4.20;1.80;;;;;;;8.78;98.65;99260.41;5006300;28;20100;-75
2022/11/16 06:58:09;;;;;;;7.13;2.00;;;;;;;8.75;99.17;99257.97;5006529;28;20669;-75
2022/11/16 07:01:12;;;;;;;6.65;2.95;;;;;;;8.77;99.07;99248.28;5006982;28;20128;-75
2022/11/16 07:04:18;;;;;;;7.47;3.25;;;;;;;8.80;98.58;99248.91;5006469;28;20049;-76
2022/11/16 07:07:27;;;;;;;4.38;2.50;;;;;;;8.77;98.45;99240.47;5007456;28;20104;-75
2022/11/16 07:10:32;;;;;;;3.08;1.60;;;;;;;8.69;98.48;99250.56;5007182;28;20119;-75
2022/11/16 07:13:37;;;;;;;3.22;1.30;;;;;;;8.72;98.19;99252.97;5007164;28;20405;-75
2022/11/16 07:16:42;;;;;;;3.70;1.30;;;;;;;8.65;98.33;99249.06;5005475;28;20044;-75
2022/11/16 07:19:47;;;;;;;3.42;1.00;;;;;;;8.63;97.92;99256.16;5006005;28;20073;-76
2022/11/16 07:22:50;;;;;;;;;;;;;;;8.53;98.31;99266.34;5020818;28;20045;-76
2022/11/16 07:25:58;;;;;;;6.53;1.10;;;;;;;8.67;97.35;99283.69;4998139;28;19925;-78
2022/11/16 07:29:09;;;;;;;3.47;1.05;;;;;;;8.52;97.11;99291.56;5005975;28;20112;-79
2022/11/16 07:32:17;;;;;;;4.00;1.00;;;;;;;8.56;97.45;99298.25;5005366;28;20048;-76
2022/11/16 07:35:37;;;;;;;2.13;0.80;;;;;;;8.37;97.66;99308.13;4987458;28;20045;-76
2022/11/16 07:38:41;;;;;;;7.88;0.95;;;;;;;8.51;97.52;99321.13;4989313;28;20541;-76
2022/11/16 07:41:45;;;;;;;5.03;1.30;;;;;;;8.46;97.57;99325.81;4988684;28;20044;-74
2022/11/16 07:44:59;;;;;;;4.07;1.23;;;;;;;8.54;97.00;99333.13;4987855;28;20076;-74
2022/11/16 07:48:03;;;;;;;6.72;1.00;;;;;;;8.48;97.31;99342.16;5004294;28;20513;-74
2022/11/16 07:51:25;;;;;;;3.83;0.85;;;;;;;8.29;97.03;99341.59;5006165;28;20045;-84
2022/11/16 07:54:48;;;;;;;3.42;0.98;;;;;;;8.44;97.32;99353.72;5006196;28;20041;-85
2022/11/16 07:57:52;;;;;;;4.10;1.10;;;;;;;8.41;97.02;99361.72;5005764;28;20077;-86
2022/11/16 08:01:06;;;;;;;4.22;0.73;;;;;;;8.44;96.68;99363.31;5000214;28;20568;-86
2022/11/16 08:04:10;;;;;;;3.17;0.75;;;;;;;8.40;96.58;99360.06;5001918;28;20060;-86
2022/11/16 08:07:15;;;;;;;2.75;0.60;;;;;;;8.48;97.00;99364.78;4988265;28;20659;-88
2022/11/16 08:10:29;;;;;;;5.07;0.93;;;;;;;8.33;97.87;99375.19;4994215;28;20065;-87
2022/11/16 08:13:36;;;;;;;2.67;0.90;;;;;;;8.26;98.09;99379.09;5015707;28;20133;-87
2022/11/16 08:16:40;;;;;;;3.75;1.10;;;;;;;8.36;98.38;99374.19;4999727;28;20037;-87
2022/11/16 08:19:52;;;;;;;5.38;0.80;;;;;;;8.43;98.83;99374.66;4999039;28;20042;-87
2022/11/16 08:22:59;;;;;;;5.07;0.88;;;;;;;8.38;98.89;99367.13;4995613;28;20096;-86
2022/11/16 08:26:08;;;;;;;5.93;1.15;;;;;;;8.47;99.19;99376.97;4999172;28;20057;-87
2022/11/16 08:29:13;;;;;;;3.90;1.00;;;;;;;8.41;98.63;99376.53;4992720;28;20054;-85
2022/11/16 08:32:20;;;;;;;8.25;1.00;;;;;;;8.52;99.21;99369.72;4997463;28;20073;-87
2022/11/16 08:35:23;;;;;;;7.30;0.85;;;;;;;8.40;98.80;99378.28;4991594;28;20104;-87
2022/11/16 08:38:27;;;;;;;3.05;0.90;;;;;;;8.51;98.22;99362.81;4991600;28;20081;-86
2022/11/16 08:41:30;;;;;;;6.60;0.98;;;;;;;8.56;98.60;99370.38;4994868;28;20116;-87
2022/11/16 08:44:33;;;;;;;;;;;;;;;8.50;98.23;99368.97;5000490;28;20068;-87
2022/11/16 08:47:41;;;;;;;6.00;1.05;;;;;;;8.50;98.40;99371.56;4994278;28;19971;-86
2022/11/16 08:50:45;;;;;;;8.55;1.92;;;;;;;8.63;97.88;99376.84;5010797;28;20048;-86
2022/11/16 08:53:56;;;;;;;5.75;1.00;;;;;;;8.60;99.39;99377.88;5008159;28;20041;-86
2022/11/16 08:57:01;;;;;;;4.10;1.08;;;;;;;8.60;99.22;99383.09;5008483;28;20052;-83
2022/11/16 09:00:10;;;;;;;4.15;1.02;;;;;;;8.76;99.71;99379.53;5009679;28;20096;-83
2022/11/16 09:03:13;;;;;;;10.30;1.10;;;;;;;8.69;99.20;99383.47;5010601;28;20562;-82
2022/11/16 09:06:17;;;;;;;10.02;1.55;;;;;;;8.66;99.92;99381.06;5011367;28;20135;-83
2022/11/16 09:09:21;;;;;;;5.75;1.30;;;;;;;8.74;100.00;99371.81;5010273;28;20107;-82
2022/11/16 09:12:24;;;;;;;6.88;1.40;;;;;;;8.77;100.00;99369.00;5009365;28;20124;-83
2022/11/16 09:15:27;;;;;;;;;;;;;;;8.84;100.00;99372.06;5003247;28;20520;-83
2022/11/16 09:18:32;;;;;;;6.65;1.65;;;;;;;8.96;100.00;99366.06;5010325;28;19921;-83
2022/11/16 09:21:36;;;;;;;11.43;5.70;;;;;;;9.13;99.90;99369.38;5004618;28;20083;-82
2022/11/16 09:24:39;;;;;;;10.20;2.17;;;;;;;9.07;99.80;99371.44;5006846;28;20040;-82
2022/11/16 09:27:43;;;;;;;10.30;1.80;;;;;;;9.20;99.80;99361.03;5008907;28;20119;-83
2022/11/16 09:30:49;;;;;;;14.00;3.10;;;;;;;9.37;99.83;99367.75;5010509;28;20080;-83
2022/11/16 09:33:57;;;;;;;12.95;2.03;;;;;;;9.21;100.00;99378.34;5010025;28;20107;-81
2022/11/16 09:37:00;;;;;;;7.97;2.40;;;;;;;9.27;100.00;99382.34;5010127;28;20052;-82
2022/11/16 09:40:03;;;;;;;;;;;;;;;9.36;100.00;99381.75;5008853;28;20166;-82
2022/11/16 09:43:41;;;;;;;10.23;1.45;;;;;;;9.18;100.00;99388.16;5009341;28;20387;-76
2022/11/16 09:46:48;;;;;;;11.70;3.13;;;;;;;9.24;100.00;99388.59;5009905;28;20096;-77
2022/11/16 09:49:54;;;;;;;15.50;2.10;;;;;;;9.43;100.00;99384.78;5009706;28;20077;-77
2022/11/16 09:53:08;;;;;;;12.40;1.65;;;;;;;9.56;100.00;99385.66;5009460;28;20061;-76
2022/11/16 09:56:19;;;;;;;12.27;1.65;;;;;;;9.60;100.00;99389.72;5007735;28;20512;-78
2022/11/16 09:59:44;;;;;;;8.55;2.50;;;;;;;9.70;100.00;99385.59;4991622;28;20053;-78
2022/11/16 10:03:13;;;;;;;8.15;1.60;;;;;;;9.84;100.00;99397.69;4993011;28;20126;-78
2022/11/16 10:06:21;;;;;;;22.58;10.23;;;;;;;9.97;98.70;99390.72;4994395;28;20048;-78
2022/11/16 10:09:29;;;;;;;19.77;3.20;;;;;;;10.08;90.69;99383.91;4994052;28;20556;-78
2022/11/16 10:12:57;;;;;;;16.00;2.28;;;;;;;10.28;86.00;99379.97;4994156;28;20044;-78
2022/11/16 10:16:26;;;;;;;11.45;1.90;;;;;;;10.43;84.42;99374.53;4989100;28;20513;-78
2022/11/16 10:19:53;;;;;;;10.50;3.65;;;;;;;10.51;84.38;99365.31;4994136;28;20085;-78
2022/11/16 10:23:31;;;;;;;8.10;1.52;;;;;;;10.45;85.26;99363.94;4994009;28;20061;-77
2022/11/16 10:27:27;;;;;;;13.00;2.08;;;;;;;10.37;91.29;99364.50;4994129;28;20101;-78
2022/11/16 10:30:41;;;;;;;8.07;1.60;;;;;;;10.48;93.68;99372.41;4970891;28;20556;-78
2022/11/16 10:33:45;;;;;;;;;;;;;;;10.51;92.44;99367.91;4994427;28;20496;-78
2022/11/16 10:36:49;;;;;;;8.57;1.77;;;;;;;10.45;94.88;99366.56;4994173;28;20004;-78
2022/11/16 10:39:54;;;;;;;13.90;2.20;;;;;;;10.51;94.43;99354.84;4993683;28;20053;-78
2022/11/16 10:43:09;;;;;;;13.75;2.83;;;;;;;10.39;98.27;99352.16;4993660;28;20515;-78
2022/11/16 10:46:30;;;;;;;9.75;1.95;;;;;;;10.48;96.55;99351.50;4994044;28;20052;-77
2022/11/16 10:49:42;;;;;;;8.20;1.35;;;;;;;10.42;97.77;99351.94;4993650;28;20077;-77
2022/11/16 10:52:47;;;;;;;14.77;2.95;;;;;;;10.45;98.06;99351.72;4993601;28;20049;-77
2022/11/16 10:56:18;;;;;;;11.20;2.78;;;;;;;10.52;96.12;99357.34;4993420;28;20049;-77
2022/11/16 10:59:37;;;;;;;8.95;2.33;;;;;;;10.74;95.55;99343.59;4993372;28;20074;-77
2022/11/16 11:02:47;;;;;;;13.43;3.35;;;;;;;10.79;93.67;99335.44;4993538;28;20049;-77
2022/11/16 11:05:57;;;;;;;14.07;3.30;;;;;;;10.98;91.12;99337.56;4993392;28;20146;-77
2022/11/16 11:09:33;;;;;;;10.90;4.00;;;;;;;11.24;84.85;99338.25;4993149;28;20053;-77
2022/11/16 11:13:11;;;;;;;10.90;2.55;;;;;;;11.53;85.72;99333.47;4992585;28;20033;-77
2022/11/16 11:16:17;;;;;;;10.60;3.45;;;;;;;11.57;81.42;99332.25;4993303;28;20049;-77
2022/11/16 11:19:28;;;;;;;15.80;2.75;;;;;;;11.47;85.95;99323.44;4993553;28;20048;-77
2022/11/16 11:22:45;;;;;;;20.40;3.00;;;;;;;11.40;89.82;99320.44;4993125;28;20052;-77
2022/11/16 11:25:48;;;;;;;10.20;1.75;;;;;;;11.15;92.68;99319.66;4993036;28;20053;-74
2022/11/16 11:28:52;;;;;;;12.02;1.58;;;;;;;11.24;93.81;99314.69;4993153;28;20053;-76
2022/11/16 11:32:04;;;;;;;8.20;1.92;;;;;;;11.25;94.45;99309.34;4994935;28;20045;-77
2022/11/16 11:35:23;;;;;;;13.27;2.67;;;;;;;11.10;91.25;99305.22;4992195;28;20100;-78
2022/11/16 11:38:28;;;;;;;8.13;2.15;;;;;;;11.24;89.27;99304.22;4992886;28;20417;-78
2022/11/16 11:41:35;;;;;;;10.27;1.45;;;;;;;11.29;92.88;99297.69;4992632;28;20533;-78
2022/11/16 11:44:53;;;;;;;13.98;1.98;;;;;;;11.64;89.27;99294.19;4993248;28;20101;-78
2022/11/16 11:48:33;;;;;;;12.95;2.15;;;;;;;11.51;82.89;99283.00;4992913;28;20137;-78
2022/11/16 11:51:41;;;;;;;14.43;2.05;;;;;;;11.47;91.09;99277.16;4992742;28;20097;-78
2022/11/16 11:54:46;;;;;;;14.27;2.58;;;;;;;11.35;89.71;99278.91;4992673;28;20048;-78
2022/11/16 11:57:52;;;;;;;12.05;2.20;;;;;;;11.29;86.95;99274.13;4992762;28;20050;-78
2022/11/16 12:01:24;;;;;;;10.57;1.85;;;;;;;11.34;86.66;99276.41;4993480;28;20061;-78
2022/11/16 12:04:50;;;;;;;9.70;2.00;;;;;;;11.36;88.17;99270.13;4987410;28;20112;-78
2022/11/16 12:08:31;;;;;;;13.80;1.88;;;;;;;11.55;82.58;99274.81;4996938;28;20053;-78
2022/11/16 12:11:57;;;;;;;11.40;2.05;;;;;;;11.79;85.79;99266.84;4996718;28;20057;-78
2022/11/16 12:15:31;;;;;;;7.75;1.73;;;;;;;11.61;86.44;99263.00;4996853;28;20077;-76
2022/11/16 12:18:40;;;;;;;12.18;1.75;;;;;;;11.78;83.67;99252.09;4996443;28;20088;-76
2022/11/16 12:22:05;;;;;;;6.95;1.38;;;;;;;11.92;80.71;99251.03;4995925;28;20089;-76
2022/11/16 12:25:15;;;;;;;10.15;2.67;;;;;;;11.75;79.94;99244.47;4996243;28;20054;-76
2022/11/16 12:28:36;;;;;;;9.55;1.77;;;;;;;12.05;82.36;99251.72;4996220;28;20183;-77
2022/11/16 12:31:58;;;;;;;21.95;8.52;;;;;;;11.97;84.23;99243.66;4997944;28;20049;-75
2022/11/16 12:35:20;;;;;;;10.05;2.58;;;;;;;12.07;76.22;99241.97;4995491;28;20057;-76
2022/11/16 12:38:51;;;;;;;11.88;4.57;;;;;;;12.22;80.86;99236.47;4994167;28;20410;-78
2022/11/16 12:42:17;;;;;;;9.48;2.58;;;;;;;12.36;76.65;99233.59;4994057;28;20054;-78
2022/11/16 12:45:43;;;;;;;12.60;3.28;;;;;;;12.18;74.77;99227.19;4994285;28;20532;-78
2022/11/16 12:49:02;;;;;;;7.72;1.40;;;;;;;12.06;72.67;99221.13;5006266;28;20049;-76
2022/11/16 12:52:50;;;;;;;11.55;3.35;;;;;;;11.96;71.81;99222.81;4995885;28;20037;-77
2022/11/16 12:56:43;;;;;;;12.95;2.90;;;;;;;11.86;76.37;99220.91;4973035;28;20102;-77
2022/11/16 13:00:03;;;;;;;8.07;2.50;;;;;;;11.84;75.74;99227.22;4970452;28;20069;-78
2022/11/16 13:03:28;;;;;;;11.35;2.40;;;;;;;11.98;78.52;99226.97;4994414;28;20112;-78
2022/11/16 13:06:46;;;;;;;7.38;1.67;;;;;;;12.05;80.96;99229.94;4994793;28;20053;-78
2022/11/16 13:10:08;;;;;;;14.85;6.03;;;;;;;12.19;76.10;99221.84;4995310;28;20061;-77
2022/11/16 13:13:23;;;;;;;11.13;2.63;;;;;;;12.48;76.31;99221.28;4993295;28;20100;-77
2022/11/16 13:16:26;;;;;;;9.95;2.03;;;;;;;12.30;80.87;99224.41;4995452;28;20045;-77
2022/11/16 13:19:30;;;;;;;9.52;1.85;;;;;;;12.32;76.88;99217.28;4995447;28;20042;-79
2022/11/16 13:22:37;;;;;;;9.00;1.40;;;;;;;12.30;73.76;99219.19;4995107;28;20085;-78
2022/11/16 13:25:44;;;;;;;12.68;4.30;;;;;;;12.39;71.98;99216.78;4995219;28;20121;-78
2022/11/16 13:29:01;;;;;;;9.43;2.40;;;;;;;12.46;71.07;99204.84;4995290;28;20056;-78
2022/11/16 13:32:21;;;;;;;10.98;2.33;;;;;;;12.43;72.59;99203.28;5006599;28;20051;-78
2022/11/16 13:35:26;;;;;;;9.20;2.55;;;;;;;12.30;78.41;99197.38;4994635;28;20072;-78
2022/11/16 13:38:52;;;;;;;10.23;2.85;;;;;;;12.23;78.95;99197.03;4994754;28;20053;-78
2022/11/16 13:42:13;;;;;;;11.43;2.53;;;;;;;12.17;84.36;99191.47;4992481;28;20140;-78
2022/11/16 13:45:21;;;;;;;10.70;2.25;;;;;;;12.11;78.28;99198.03;4993153;28;20046;-78
2022/11/16 13:48:32;;;;;;;6.78;1.65;;;;;;;12.10;82.78;99197.19;4994391;28;20108;-78
2022/11/16 13:51:38;;;;;;;8.30;1.90;;;;;;;12.11;82.81;99198.03;5004773;28;20536;-78
2022/11/16 13:54:46;;;;;;;9.75;2.25;;;;;;;11.94;84.44;99191.50;5010777;28;20113;-79
2022/11/16 13:57:52;;;;;;;5.80;1.63;;;;;;;11.97;77.22;99187.81;5012638;28;20057;-78
2022/11/16 14:01:09;;;;;;;10.00;2.45;;;;;;;12.12;81.51;99189.19;5013853;28;20493;-79
2022/11/16 14:04:38;;;;;;;7.20;2.60;;;;;;;12.34;81.64;99191.75;5012035;28;20096;-78
2022/11/16 14:07:48;;;;;;;11.40;3.47;;;;;;;12.22;79.88;99174.41;5012101;28;20071;-78
2022/11/16 14:11:00;;;;;;;7.20;1.45;;;;;;;12.03;83.01;99169.00;4988953;28;20061;-78
2022/11/16 14:14:32;;;;;;;14.43;2.53;;;;;;;11.93;84.53;99166.25;5005873;28;20156;-78
2022/11/16 14:18:08;;;;;;;6.38;1.65;;;;;;;11.75;nan;99171.13;5007948;28;20068;-78
2022/11/16 14:21:45;;;;;;;13.60;1.58;;;;;;;11.62;85.79;99179.13;4991699;28;20085;-78
2022/11/16 14:25:28;;;;;;;8.95;1.50;;;;;;;11.56;87.52;99187.44;5008864;28;20040;-77
2022/11/16 14:29:08;;;;;;;13.40;2.55;;;;;;;11.53;87.70;99179.00;5006860;28;20049;-77
2022/11/16 14:32:28;;;;;;;6.28;1.48;;;;;;;11.53;88.17;99181.63;5009243;28;20116;-77
2022/11/16 14:35:38;;;;;;;8.95;1.70;;;;;;;11.33;90.27;99178.75;5009466;28;20053;-80
2022/11/16 14:38:47;;;;;;;5.47;1.48;;;;;;;11.37;88.21;99185.41;5007385;28;20076;-77
2022/11/16 14:42:23;;;;;;;8.50;1.45;;;;;;;11.34;89.36;99171.75;5009092;28;20096;-77
2022/11/16 14:46:12;;;;;;;7.65;1.50;;;;;;;11.28;89.38;99173.03;4993620;28;20073;-78
2022/11/16 14:49:24;;;;;;;8.00;1.20;;;;;;;11.31;87.64;99175.41;5008312;28;20436;-78
2022/11/16 14:52:42;;;;;;;13.00;1.85;;;;;;;11.27;89.55;99173.16;5007903;28;20102;-78
2022/11/16 14:55:46;;;;;;;12.20;2.60;;;;;;;11.19;90.41;99173.75;4989354;28;20068;-77
2022/11/16 14:58:55;;;;;;;8.70;2.53;;;;;;;11.16;89.68;99185.25;5007936;28;20049;-78
2022/11/16 15:02:11;;;;;;;12.30;4.10;;;;;;;11.18;89.29;99187.78;5006765;28;20056;-77
2022/11/16 15:05:17;;;;;;;9.63;3.65;;;;;;;11.13;90.56;99179.44;5008956;28;20108;-77
2022/11/16 15:08:25;;;;;;;7.75;1.80;;;;;;;11.17;91.25;99176.50;5007497;28;20347;-77
2022/11/16 15:15:27;;;;;;;8.40;2.20;;;;;;;11.22;90.26;99162.22;5004825;28;20053;-77
2022/11/16 15:18:31;;;;;;;7.22;1.73;;;;;;;11.17;90.08;99149.50;5007991;28;20048;-78
2022/11/16 15:21:37;;;;;;;6.30;2.35;;;;;;;11.16;90.97;99147.81;5007943;28;20063;-77
2022/11/16 15:25:00;;;;;;;7.55;1.85;;;;;;;11.16;91.34;99146.03;5008968;28;20567;-76
2022/11/16 15:28:34;;;;;;;8.88;1.60;;;;;;;10.98;91.40;99130.94;5001533;28;20401;-78
2022/11/16 15:36:23;;;;;;;9.07;1.80;;;;;;;10.74;93.71;99134.44;4972517;28;20112;-76
2022/11/16 15:39:32;;;;;;;10.20;1.98;;;;;;;10.68;94.11;99137.50;4977793;28;20100;-76
2022/11/16 15:42:38;;;;;;;9.13;1.55;;;;;;;10.63;94.36;99139.66;4988277;28;20083;-77
2022/11/16 15:45:42;;;;;;;9.00;1.98;;;;;;;10.79;93.71;99134.94;4987281;28;20049;-77
2022/11/16 15:48:46;;;;;;;13.45;1.65;;;;;;;10.68;93.50;99133.09;4968632;28;20461;-76
2022/11/16 15:51:49;;;;;;;10.13;2.50;;;;;;;10.73;93.50;99137.16;4966446;28;20513;-77
2022/11/16 15:55:02;;;;;;;10.18;2.50;;;;;;;10.55;93.84;99142.81;4980442;28;20567;-75